Flight Track Log - Related Links

Times and Time Zones

All times are in EDT time to prevent confusion due to time zone crossing. See the ACA831 flight status page for this flight to view local times or setup timezone preferences in your user account.

Time Position Orientation Groundspeed Altitude Reporting Facility
EDT Latitude Longitude Course Direction KTS MPH feet Rate Location/Type
Fri 04:14:07 PM 45.4720 -73.7190 145° Southeast 154 177 500  Level FlightAware ADS-B
Fri 04:14:37 PM 45.4900 -73.6980 39° Northeast 172 198 2,300 3,300 Climbing FlightAware ADS-B
Fri 04:15:07 PM 45.5080 -73.6780 38° Northeast 218 251 3,800 3,150 Climbing FlightAware ADS-B
Fri 04:15:17 PM 45.5200 -73.6730 16° North 233 268 4,400 3,360 Climbing FlightAware ADS-B
Fri 04:15:32 PM 45.5380 -73.6820 341° North 258 297 5,200 3,400 Climbing FlightAware ADS-B
Fri 04:15:47 PM 45.5490 -73.7000 311° West 273 314 6,100 4,200 Climbing FlightAware ADS-B
Fri 04:16:02 PM 45.5530 -73.7250 283° West 277 319 7,300 4,800 Climbing FlightAware ADS-B
Fri 04:16:17 PM 45.5480 -73.7550 257° West 284 327 8,500 4,105 Climbing FlightAware ADS-B
Fri 04:16:59 PM 45.5220 -73.8340 245° Southwest 330 380 11,200 3,630 Climbing FlightAware ADS-B
Fri 04:17:38 PM 45.5040 -73.9210 254° West 360 414 13,400 3,071 Climbing FlightAware ADS-B
Fri 04:18:23 PM 45.4850 -74.0230 255° West 378 435 15,500 2,753 Climbing FlightAware ADS-B
Fri 04:19:03 PM 45.4680 -74.1230 256° West 392 451 17,300 2,625 Climbing FlightAware ADS-B
Fri 04:19:43 PM 45.4500 -74.2230 256° West 403 464 19,000 2,612 Climbing FlightAware ADS-B
Fri 04:20:28 PM 45.4280 -74.3430 255° West 406 467 21,000 2,541 Climbing FlightAware ADS-B
Fri 04:21:08 PM 45.4090 -74.4480 256° West 420 483 22,600 2,550 Climbing FlightAware ADS-B
Fri 04:21:48 PM 45.3910 -74.5560 257° West 433 498 24,400 2,753 Climbing FlightAware ADS-B
Fri 04:22:33 PM 45.3690 -74.6820 256° West 450 518 26,500 2,541 Climbing FlightAware ADS-B
Fri 04:23:13 PM 45.3500 -74.7930 256° West 455 524 28,000 2,259 Climbing FlightAware ADS-B
Fri 04:23:58 PM 45.3260 -74.9310 256° West 454 522 29,700 1,976 Climbing FlightAware ADS-B
Fri 04:24:38 PM 45.3070 -75.0430 256° West 446 513 30,800 1,553 Climbing FlightAware ADS-B
Fri 04:25:23 PM 45.2850 -75.1680 256° West 444 511 31,900 1,482 Climbing FlightAware ADS-B
Fri 04:26:03 PM 45.2650 -75.2780 256° West 442 509 32,900 1,350 Climbing FlightAware ADS-B
Fri 04:26:43 PM 45.2450 -75.3940 256° West 444 511 33,700 776 Climbing FlightAware ADS-B
Fri 04:27:28 PM 45.2210 -75.5240 255° West 442 509 34,000 212 Climbing FlightAware ADS-B
Fri 04:28:08 PM 45.2010 -75.6350 256° West 434 499 34,000  Level FlightAware ADS-B
Fri 04:28:53 PM 45.1800 -75.7520 256° West 426 490 34,000  Level FlightAware ADS-B
Fri 04:29:33 PM 45.1620 -75.8480 255° West 424 488 34,000  Level FlightAware ADS-B
Fri 04:30:18 PM 45.1370 -75.9850 256° West 425 489 34,000  Level FlightAware ADS-B
Fri 04:30:48 PM 45.1220 -76.0660 255° West 425 489 34,000  Level FlightAware ADS-B
Fri 04:31:38 PM 45.0990 -76.1880 255° West 411 473 34,000  Level FlightAware ADS-B
Fri 04:32:23 PM 45.0660 -76.2970 247° West 403 464 34,000  Level FlightAware ADS-B
Fri 04:32:58 PM 45.0340 -76.3790 241° Southwest 402 463 34,000  Level FlightAware ADS-B
Fri 04:33:43 PM 44.9920 -76.4810 240° Southwest 401 461 34,000  Level FlightAware ADS-B
Fri 04:34:28 PM 44.9530 -76.5790 241° Southwest 395 455 34,000  Level FlightAware ADS-B
Fri 04:35:08 PM 44.9160 -76.6710 240° Southwest 392 451 34,000  Level FlightAware ADS-B
Fri 04:35:53 PM 44.8760 -76.7710 241° Southwest 391 450 34,000  Level FlightAware ADS-B
Fri 04:36:33 PM 44.8400 -76.8610 241° Southwest 386 444 34,000  Level FlightAware ADS-B
Fri 04:37:13 PM 44.8050 -76.9470 240° Southwest 384 442 34,000  Level FlightAware ADS-B
Fri 04:37:58 PM 44.7690 -77.0350 240° Southwest 384 442 34,000  Level FlightAware ADS-B
Fri 04:38:38 PM 44.7300 -77.1310 240° Southwest 383 441 34,000  Level FlightAware ADS-B
Fri 04:39:18 PM 44.6950 -77.2180 241° Southwest 383 441 34,000  Level FlightAware ADS-B
Fri 04:40:03 PM 44.6560 -77.3140 240° Southwest 384 442 34,000  Level FlightAware ADS-B
Fri 04:40:43 PM 44.6220 -77.3960 240° Southwest 384 442 34,000 -282 Level FlightAware ADS-B
Fri 04:41:28 PM 44.5810 -77.4940 240° Southwest 393 452 33,600 -635 Descending FlightAware ADS-B
Fri 04:42:08 PM 44.5440 -77.5860 241° Southwest 386 444 33,100 -750 Descending FlightAware ADS-B
Fri 04:42:48 PM 44.5100 -77.6680 240° Southwest 378 435 32,600 -706 Descending FlightAware ADS-B
Fri 04:43:33 PM 44.4720 -77.7580 239° Southwest 372 428 32,100 -667 Descending FlightAware ADS-B
Fri 04:44:18 PM 44.4300 -77.8580 240° Southwest 366 421 31,600 -675 Descending FlightAware ADS-B
Fri 04:44:53 PM 44.4070 -77.9290 246° West 361 415 31,200 -514 Descending FlightAware ADS-B
Fri 04:45:28 PM 44.4120 -78.0110 275° West 352 405 31,000 -171 Descending FlightAware ADS-B
Fri 04:46:03 PM 44.4400 -78.0700 304° West 351 404 31,000  Level FlightAware ADS-B
Fri 04:46:53 PM 44.4940 -78.1650 309° West 356 410 31,000 -133 Level FlightAware ADS-B
Fri 04:47:33 PM 44.5360 -78.2390 309° West 362 417 30,800 -750 Descending FlightAware ADS-B
Fri 04:48:13 PM 44.5660 -78.3210 297° West 355 409 30,000 -1,263 Descending FlightAware ADS-B
Fri 04:49:08 PM 44.5610 -78.4420 267° West 348 400 28,800 -1,371 Descending FlightAware ADS-B
Fri 04:49:23 PM 44.5470 -78.4680 233° Southwest 343 395 28,400 -1,400 Descending FlightAware ADS-B
Fri 04:49:38 PM 44.5270 -78.4870 214° Southwest 338 389 28,100 -1,309 Descending FlightAware ADS-B
Fri 04:50:18 PM 44.4710 -78.5230 205° Southwest 334 384 27,200 -1,412 Descending FlightAware ADS-B
Fri 04:51:03 PM 44.4070 -78.5620 204° Southwest 334 384 26,100 -1,412 Descending FlightAware ADS-B
Fri 04:51:43 PM 44.3500 -78.5970 204° Southwest 330 380 25,200 -1,271 Descending FlightAware ADS-B
Fri 04:52:28 PM 44.2910 -78.6340 204° Southwest 319 367 24,300 -1,341 Descending FlightAware ADS-B
Fri 04:53:08 PM 44.2360 -78.6680 204° Southwest 315 362 23,300 -1,500 Descending FlightAware ADS-B
Fri 04:53:48 PM 44.1830 -78.7010 204° Southwest 311 358 22,300 -1,482 Descending FlightAware ADS-B
Fri 04:54:33 PM 44.1240 -78.7380 204° Southwest 306 352 21,200 -1,482 Descending FlightAware ADS-B
Fri 04:55:13 PM 44.0730 -78.7690 204° Southwest 301 346 20,200 -1,457 Descending FlightAware ADS-B
Fri 04:55:43 PM 44.0360 -78.7970 209° Southwest 299 344 19,500 -1,457 Descending FlightAware ADS-B
Fri 04:56:23 PM 44.0050 -78.8560 234° Southwest 297 342 18,500 -1,412 Descending FlightAware ADS-B
Fri 04:57:08 PM 43.9710 -78.9300 237° Southwest 291 335 17,500 -1,271 Descending FlightAware ADS-B
Fri 04:57:48 PM 43.9430 -78.9930 238° Southwest 284 327 16,700 -1,200 Descending FlightAware ADS-B
Fri 04:58:28 PM 43.9160 -79.0520 238° Southwest 278 320 15,900 -1,200 Descending FlightAware ADS-B
Fri 04:59:13 PM 43.8840 -79.1200 237° Southwest 275 316 15,000 -1,200 Descending FlightAware ADS-B
Fri 04:59:53 PM 43.8570 -79.1790 238° Southwest 270 311 14,200 -1,412 Descending FlightAware ADS-B
Fri 05:00:38 PM 43.8270 -79.2440 237° Southwest 268 308 13,000 -1,553 Descending FlightAware ADS-B
Fri 05:01:18 PM 43.8010 -79.3020 238° Southwest 264 304 12,000 -1,553 Descending FlightAware ADS-B
Fri 05:02:03 PM 43.7660 -79.3590 230° Southwest 253 291 10,800 -1,482 Descending FlightAware ADS-B
Fri 05:02:43 PM 43.7300 -79.3950 216° Southwest 236 272 9,900 -1,385 Descending FlightAware ADS-B
Fri 05:03:08 PM 43.7080 -79.4160 215° Southwest 232 267 9,300 -1,418 Descending FlightAware ADS-B
Fri 05:03:38 PM 43.6810 -79.4420 215° Southwest 233 268 8,600 -1,300 Descending FlightAware ADS-B
Fri 05:04:08 PM 43.6540 -79.4670 214° Southwest 234 269 8,000 -1,200 Descending FlightAware ADS-B
Fri 05:04:33 PM 43.6330 -79.4880 216° Southwest 234 269 7,500 -1,309 Descending FlightAware ADS-B
Fri 05:05:03 PM 43.6060 -79.5140 215° Southwest 231 266 6,800 -1,418 Descending FlightAware ADS-B
Fri 05:05:28 PM 43.5850 -79.5380 220° Southwest 231 266 6,200 -1,309 Descending FlightAware ADS-B
Fri 05:05:58 PM 43.5630 -79.5700 227° Southwest 232 267 5,600 -1,300 Descending FlightAware ADS-B
Fri 05:06:28 PM 43.5410 -79.6050 229° Southwest 234 269 4,900 -1,200 Descending FlightAware ADS-B
Fri 05:06:53 PM 43.5270 -79.6350 237° Southwest 228 262 4,500 -873 Descending FlightAware ADS-B
Fri 05:07:23 PM 43.5100 -79.6700 236° Southwest 216 249 4,100 -873 Descending FlightAware ADS-B
Fri 05:07:48 PM 43.4990 -79.6980 242° Southwest 216 249 3,700 -800 Descending FlightAware ADS-B
Fri 05:08:08 PM 43.5040 -79.7260 284° West 217 250 3,500 -667 Descending FlightAware ADS-B
Fri 05:08:33 PM 43.5200 -79.7510 311° West 210 242 3,200 -686 Descending FlightAware ADS-B
Fri 05:08:43 PM 43.5270 -79.7600 317° Northwest 208 239 3,100 -600 Descending FlightAware ADS-B
Fri 05:08:53 PM 43.5360 -79.7640 342° North 205 236 3,000 -400 Descending FlightAware ADS-B
Fri 05:09:13 PM 43.5540 -79.7550 20° North 199 229 2,900 -343 Descending FlightAware ADS-B
Fri 05:09:28 PM 43.5650 -79.7400 45° Northeast 197 227 2,800 -667 Descending FlightAware ADS-B
Fri 05:09:58 PM 43.5840 -79.7140 45° Northeast 185 213 2,400 -800 Descending FlightAware ADS-B
Fri 05:10:28 PM 43.6010 -79.6890 47° Northeast 177 204 2,000 -873 Descending FlightAware ADS-B
Fri 05:10:53 PM 43.6130 -79.6720 46° Northeast 165 190 1,600 -873 Descending FlightAware ADS-B
Fri 05:11:23 PM 43.6280 -79.6510 45° Northeast 144 166 1,200 -764 Descending FlightAware ADS-B
Fri 05:11:48 PM 43.6390 -79.6350 46° Northeast 134 154 900 -655 Descending FlightAware ADS-B
Fri 05:12:18 PM 43.6510 -79.6170 47° Northeast 131 151 600 -514 Descending FlightAware ADS-B
Fri 05:12:23 PM 43.6520 -79.6160 36° Northeast 128 147 600  Level FlightAware ADS-B
Fri 05:12:48 PM 43.6620 -79.6020 45° Northeast 128 147 600  Level FlightAware ADS-B

Login

Don't have an account? Register now (free) for customized features, flight alerts, and more!